createdAt,value
2017-10-12T00:01:41.425Z,13.00
2017-10-12T00:04:16.915Z,13.00
2017-10-12T00:06:50.359Z,13.00
2017-10-12T00:15:33.343Z,12.90
2017-10-12T00:18:06.951Z,12.90
2017-10-12T00:20:46.893Z,12.90
2017-10-12T00:26:11.754Z,13.00
2017-10-12T00:31:36.724Z,12.90
2017-10-12T00:34:10.505Z,12.80
2017-10-12T00:36:54.923Z,12.80
2017-10-12T00:39:37.157Z,12.90
2017-10-12T00:42:23.283Z,12.80
2017-10-12T00:45:04.025Z,12.80
2017-10-12T00:47:37.820Z,12.70
2017-10-12T00:50:11.843Z,12.80
2017-10-12T00:52:42.797Z,12.70
2017-10-12T00:55:23.020Z,12.70
2017-10-12T01:03:02.348Z,12.80
2017-10-12T01:08:13.699Z,12.70
2017-10-12T01:10:44.911Z,12.60
2017-10-12T01:13:18.389Z,12.50
2017-10-12T01:58:14.584Z,12.60
2017-10-12T02:00:51.034Z,12.50
2017-10-12T02:03:30.163Z,12.70
2017-10-12T02:06:07.821Z,12.80
2017-10-12T02:08:50.228Z,13.00
2017-10-12T02:11:31.806Z,13.40
2017-10-12T02:14:08.196Z,13.60
2017-10-12T02:16:43.881Z,13.80
2017-10-12T02:19:16.193Z,13.90
2017-10-12T02:25:04.978Z,14.20
2017-10-12T02:27:35.710Z,14.10
2017-10-12T02:30:14.442Z,14.50
2017-10-12T02:33:03.984Z,14.50
2017-10-12T02:38:40.094Z,15.00
2017-10-12T02:41:35.766Z,15.20
2017-10-12T02:44:12.741Z,15.60
2017-10-12T02:47:03.749Z,15.60
2017-10-12T02:49:37.180Z,15.70
2017-10-12T02:52:11.527Z,15.80
2017-10-12T02:57:19.347Z,15.80
2017-10-12T02:59:51.705Z,15.90
2017-10-12T03:02:40.066Z,16.00
2017-10-12T03:05:14.944Z,16.10
2017-10-12T03:07:47.005Z,16.00
2017-10-12T03:10:43.060Z,16.00
2017-10-12T03:13:19.562Z,16.00
2017-10-12T03:16:01.183Z,16.00
2017-10-12T03:18:37.195Z,15.90
2017-10-12T03:21:13.679Z,16.00
2017-10-12T03:23:44.983Z,15.80
2017-10-12T03:26:27.951Z,15.70
2017-10-12T03:29:06.594Z,15.50
2017-10-12T03:34:37.287Z,15.50
2017-10-12T03:37:11.075Z,15.50
2017-10-12T03:39:40.997Z,15.60
2017-10-12T03:42:17.553Z,15.60
2017-10-12T03:44:49.497Z,15.70
2017-10-12T03:47:21.625Z,15.80
2017-10-12T03:49:52.216Z,15.80
2017-10-12T03:55:10.748Z,15.80
2017-10-12T03:57:39.841Z,15.70
2017-10-12T04:00:15.456Z,15.70
2017-10-12T04:02:45.231Z,15.80
2017-10-12T04:05:15.848Z,15.80
2017-10-12T04:07:46.851Z,15.80
2017-10-12T04:10:18.188Z,15.80
2017-10-12T04:12:48.631Z,15.80
2017-10-12T04:15:35.860Z,16.00
2017-10-12T04:18:10.823Z,16.00
2017-10-12T04:20:44.445Z,16.00
2017-10-12T04:23:20.008Z,16.00
2017-10-12T04:25:48.738Z,16.00
2017-10-12T04:28:27.864Z,16.00
2017-10-12T04:31:06.314Z,15.90
2017-10-12T04:33:44.141Z,15.80
2017-10-12T04:36:26.923Z,15.80
2017-10-12T04:39:18.403Z,15.80
2017-10-12T04:41:51.183Z,15.70
2017-10-12T04:47:06.810Z,15.50
2017-10-12T04:49:36.411Z,15.40
2017-10-12T04:52:04.430Z,15.50
2017-10-12T04:57:38.079Z,15.80
2017-10-12T05:03:08.877Z,15.90
2017-10-12T05:05:43.260Z,16.00
2017-10-12T05:13:38.609Z,16.10
2017-10-12T05:16:09.369Z,16.10
2017-10-12T05:18:42.491Z,16.10
2017-10-12T05:23:55.432Z,16.20
2017-10-12T05:26:30.858Z,16.20
2017-10-12T05:31:41.095Z,16.20
2017-10-12T05:34:12.420Z,16.20
2017-10-12T05:36:41.407Z,16.20
2017-10-12T05:39:10.195Z,16.20
2017-10-12T05:41:39.390Z,16.30
2017-10-12T05:44:09.395Z,16.20
2017-10-12T05:46:47.021Z,16.20
2017-10-12T05:49:30.189Z,16.30
2017-10-12T05:52:08.319Z,16.30
2017-10-12T05:54:41.707Z,16.30
2017-10-12T05:57:09.534Z,16.20
2017-10-12T05:59:40.958Z,16.30
2017-10-12T06:02:15.367Z,16.30
2017-10-12T06:04:56.277Z,16.40
2017-10-12T06:07:27.261Z,16.30
2017-10-12T06:10:03.893Z,16.30
2017-10-12T06:12:34.727Z,16.40
2017-10-12T06:15:09.977Z,16.40
2017-10-12T06:17:42.191Z,16.40
2017-10-12T06:20:13.965Z,16.40
2017-10-12T06:22:44.523Z,16.40
2017-10-12T06:25:16.793Z,16.40
2017-10-12T06:27:49.800Z,16.40
2017-10-12T06:30:19.172Z,16.40
2017-10-12T06:32:51.185Z,16.40
2017-10-12T06:35:24.872Z,16.30
2017-10-12T06:40:35.264Z,16.40
2017-10-12T06:43:09.357Z,16.40
2017-10-12T06:45:40.937Z,16.40
2017-10-12T06:48:09.533Z,16.40
2017-10-12T06:50:47.373Z,16.30
2017-10-12T06:53:17.743Z,16.30
2017-10-12T06:55:52.282Z,16.30
2017-10-12T06:58:22.251Z,16.30
2017-10-12T07:00:56.097Z,16.30
2017-10-12T07:03:27.137Z,16.30
2017-10-12T07:05:58.811Z,16.30
2017-10-12T07:08:27.534Z,16.30
2017-10-12T07:10:58.511Z,16.20
2017-10-12T07:13:29.866Z,16.20
2017-10-12T07:16:01.313Z,16.20
2017-10-12T07:18:35.081Z,16.10
2017-10-12T07:21:12.864Z,16.10
2017-10-12T07:23:46.532Z,16.10
2017-10-12T07:26:22.552Z,16.10
2017-10-12T07:28:57.112Z,16.10
2017-10-12T07:31:28.315Z,16.20
2017-10-12T07:34:04.241Z,16.30
2017-10-12T07:36:33.454Z,16.30
2017-10-12T07:39:06.111Z,16.20
2017-10-12T07:44:17.550Z,16.30
2017-10-12T07:46:52.823Z,16.50
2017-10-12T07:49:22.377Z,16.60
2017-10-12T07:51:51.747Z,16.50
2017-10-12T07:54:29.851Z,16.70
2017-10-12T07:56:59.668Z,16.90
2017-10-12T07:59:32.036Z,17.00
2017-10-12T08:02:01.989Z,17.30
2017-10-12T08:04:37.224Z,17.30
2017-10-12T08:07:08.716Z,17.70
2017-10-12T08:09:38.446Z,17.70
2017-10-12T08:12:08.818Z,17.80
2017-10-12T08:14:44.600Z,17.90
2017-10-12T08:17:27.922Z,17.90
2017-10-12T08:20:13.619Z,18.00
2017-10-12T08:22:44.639Z,18.00
2017-10-12T08:25:23.592Z,18.10
2017-10-12T08:28:04.157Z,18.10
2017-10-12T08:30:36.497Z,18.10
2017-10-12T08:33:07.850Z,18.00
2017-10-12T08:35:36.567Z,17.90
2017-10-12T08:40:46.959Z,17.90
2017-10-12T08:43:16.703Z,18.00
2017-10-12T08:45:47.616Z,18.00
2017-10-12T08:48:16.162Z,18.10
2017-10-12T08:50:50.119Z,18.20
2017-10-12T08:53:25.080Z,18.10
2017-10-12T08:55:55.650Z,18.10
2017-10-12T08:58:35.220Z,18.00
2017-10-12T09:01:06.858Z,18.00
2017-10-12T09:03:37.189Z,17.90
2017-10-12T09:06:08.777Z,17.80
2017-10-12T09:08:40.970Z,17.80
2017-10-12T09:14:10.475Z,17.60
2017-10-12T09:16:39.225Z,17.60
2017-10-12T09:19:10.073Z,17.60
2017-10-12T09:21:40.557Z,17.60
2017-10-12T09:24:15.896Z,17.60
2017-10-12T09:26:43.699Z,17.60
2017-10-12T09:29:14.931Z,17.60
2017-10-12T09:31:51.376Z,17.50
2017-10-12T09:34:25.715Z,17.50
2017-10-12T09:36:59.735Z,17.50
2017-10-12T09:39:39.356Z,17.60
2017-10-12T09:42:09.650Z,17.60
2017-10-12T09:44:40.952Z,17.70
2017-10-12T09:47:11.589Z,17.90
2017-10-12T09:49:43.785Z,18.10
2017-10-12T09:52:17.072Z,18.10
2017-10-12T09:54:47.324Z,18.30
2017-10-12T09:57:19.077Z,18.50
2017-10-12T09:59:52.381Z,18.70
2017-10-12T10:02:25.036Z,18.70
2017-10-12T10:04:54.564Z,18.80
2017-10-12T10:07:26.980Z,19.00
2017-10-12T10:09:56.604Z,19.00
2017-10-12T10:12:30.210Z,19.10
2017-10-12T10:15:03.743Z,19.10
2017-10-12T10:17:36.755Z,19.10
2017-10-12T10:20:08.163Z,19.10
2017-10-12T10:22:36.415Z,19.00
2017-10-12T10:25:06.996Z,19.00
2017-10-12T10:30:33.929Z,19.00
2017-10-12T10:33:07.681Z,19.00
2017-10-12T10:35:36.298Z,19.00
2017-10-12T10:38:09.623Z,19.10
2017-10-12T10:40:43.116Z,19.20
2017-10-12T10:43:16.503Z,19.30
2017-10-12T10:45:46.412Z,19.30
2017-10-12T10:48:18.482Z,19.40
2017-10-12T10:50:49.142Z,19.40
2017-10-12T10:53:31.681Z,19.50
2017-10-12T10:56:03.634Z,19.50
2017-10-12T11:01:23.312Z,19.60
2017-10-12T11:03:51.342Z,19.50
2017-10-12T11:06:29.042Z,19.30
2017-10-12T11:08:58.417Z,19.30
2017-10-12T11:11:30.079Z,19.40
2017-10-12T11:14:00.078Z,19.60
2017-10-12T11:16:30.978Z,19.80
2017-10-12T11:19:02.847Z,19.80
2017-10-12T11:21:34.861Z,19.90
2017-10-12T11:24:08.029Z,20.10
2017-10-12T11:26:39.656Z,20.10
2017-10-12T11:29:07.864Z,20.10
2017-10-12T11:31:40.972Z,20.30
2017-10-12T11:34:12.041Z,20.20
2017-10-12T11:36:44.031Z,20.10
2017-10-12T11:39:13.181Z,20.10
2017-10-12T11:41:43.758Z,19.60
2017-10-12T11:44:13.648Z,19.80
2017-10-12T11:46:47.786Z,19.90
2017-10-12T11:49:17.723Z,20.00
2017-10-12T11:51:47.660Z,19.90
2017-10-12T11:54:18.479Z,19.80
2017-10-12T11:56:49.569Z,19.80
2017-10-12T11:59:22.140Z,19.90
2017-10-12T12:01:57.550Z,19.80
2017-10-12T12:04:31.946Z,19.80
2017-10-12T12:07:01.760Z,19.90
2017-10-12T12:09:31.653Z,19.80
2017-10-12T12:12:06.315Z,19.70
2017-10-12T12:14:37.757Z,19.70
2017-10-12T12:17:06.501Z,19.80
2017-10-12T12:19:40.934Z,19.90
2017-10-12T12:22:09.900Z,19.90
2017-10-12T12:27:21.014Z,19.90
2017-10-12T12:29:50.423Z,19.90
2017-10-12T12:32:23.245Z,19.80
2017-10-12T12:34:53.464Z,19.60
2017-10-12T12:37:22.825Z,19.50
2017-10-12T12:39:51.343Z,19.50
2017-10-12T12:42:20.513Z,19.70
2017-10-12T12:44:49.900Z,19.80
2017-10-12T12:47:18.800Z,20.30
2017-10-12T12:49:47.726Z,20.30
2017-10-12T12:52:26.187Z,20.30
2017-10-12T12:54:58.401Z,20.40
2017-10-12T12:57:30.879Z,20.60
2017-10-12T13:00:01.190Z,20.70
2017-10-12T13:02:34.789Z,20.90
2017-10-12T13:05:06.210Z,21.10
2017-10-12T13:07:36.771Z,21.20
2017-10-12T13:10:06.931Z,21.30
2017-10-12T13:12:37.274Z,21.40
2017-10-12T13:15:10.317Z,21.50
2017-10-12T13:17:44.575Z,21.60
2017-10-12T13:20:15.247Z,21.40
2017-10-12T13:22:47.139Z,21.40
2017-10-12T13:25:18.784Z,21.30
2017-10-12T13:27:48.992Z,21.30
2017-10-12T13:30:17.714Z,21.10
2017-10-12T13:32:48.397Z,21.20
2017-10-12T13:35:17.939Z,21.20
2017-10-12T13:37:47.993Z,21.30
2017-10-12T13:40:17.571Z,21.30
2017-10-12T13:42:53.036Z,21.50
2017-10-12T13:45:23.579Z,21.60
2017-10-12T13:47:54.929Z,21.50
2017-10-12T13:50:24.965Z,21.40
2017-10-12T13:53:01.431Z,21.40
2017-10-12T13:55:33.152Z,21.30
2017-10-12T13:58:04.922Z,21.30
2017-10-12T14:00:35.705Z,21.30
2017-10-12T14:03:09.292Z,21.30
2017-10-12T14:05:40.295Z,21.20
2017-10-12T14:08:12.965Z,21.30
2017-10-12T14:10:43.833Z,21.30
2017-10-12T14:13:14.881Z,21.20
2017-10-12T14:15:45.005Z,21.20
2017-10-12T14:18:15.529Z,21.20
2017-10-12T14:20:47.483Z,21.10
2017-10-12T14:23:18.812Z,21.10
2017-10-12T14:25:48.742Z,21.00
2017-10-12T14:28:19.853Z,20.80
2017-10-12T14:30:52.168Z,20.80
2017-10-12T14:33:20.790Z,20.80
2017-10-12T14:35:51.749Z,20.50
2017-10-12T14:38:22.241Z,20.50
2017-10-12T14:40:51.406Z,20.40
2017-10-12T14:43:23.016Z,20.40
2017-10-12T16:08:35.666Z,20.30
2017-10-12T16:11:11.676Z,17.70
2017-10-12T16:16:31.771Z,17.60
2017-10-12T16:19:19.448Z,17.50
2017-10-12T16:24:47.242Z,17.60
2017-10-12T16:27:33.987Z,17.50
2017-10-12T16:33:12.407Z,17.40
2017-10-12T16:38:01.354Z,17.40
2017-10-12T16:40:33.900Z,17.40
2017-10-12T16:43:14.771Z,17.20
2017-10-12T16:52:07.219Z,17.10
2017-10-12T17:00:08.976Z,16.70
2017-10-12T17:02:36.531Z,16.80
2017-10-12T17:05:04.924Z,16.60
2017-10-12T17:07:34.088Z,16.60
2017-10-12T17:10:03.632Z,16.60
2017-10-12T17:12:35.458Z,16.40
2017-10-12T17:15:05.025Z,16.40
2017-10-12T17:17:33.669Z,16.40
2017-10-12T17:20:01.564Z,16.40
2017-10-12T17:22:30.171Z,16.40
2017-10-12T17:25:00.370Z,16.30
2017-10-12T17:27:30.749Z,16.40
2017-10-12T17:30:00.061Z,16.40
2017-10-12T17:32:30.824Z,16.40
2017-10-12T17:35:00.749Z,16.50
2017-10-12T17:37:30.543Z,16.40
2017-10-12T17:39:59.639Z,16.30
2017-10-12T17:42:29.797Z,16.20
2017-10-12T17:44:58.166Z,16.20
2017-10-12T17:47:27.153Z,16.20
2017-10-12T17:49:55.974Z,16.10
2017-10-12T17:52:26.346Z,16.20
2017-10-12T17:54:58.048Z,16.20
2017-10-12T17:57:28.055Z,16.20
2017-10-12T17:59:57.526Z,16.00
2017-10-12T18:02:27.212Z,16.00
2017-10-12T18:04:58.913Z,16.00
2017-10-12T18:07:28.431Z,15.90
2017-10-12T18:09:58.119Z,15.90
2017-10-12T18:12:26.291Z,15.90
2017-10-12T18:14:55.132Z,15.70
2017-10-12T18:17:26.924Z,15.50
2017-10-12T18:19:58.861Z,15.50
2017-10-12T18:22:27.328Z,15.40
2017-10-12T18:24:56.153Z,15.40
2017-10-12T18:27:25.023Z,15.30
2017-10-12T18:29:56.669Z,15.20
2017-10-12T18:32:31.616Z,15.10
2017-10-12T18:35:03.864Z,15.10
2017-10-12T18:37:39.251Z,15.00
2017-10-12T18:43:03.524Z,14.70
2017-10-12T18:45:33.027Z,14.60
2017-10-12T18:48:05.061Z,14.60
2017-10-12T18:50:35.191Z,14.50
2017-10-12T18:53:06.488Z,14.50
2017-10-12T18:55:35.776Z,14.40
2017-10-12T18:58:05.325Z,14.30
2017-10-12T19:00:33.890Z,14.20
2017-10-12T19:03:03.239Z,14.10
2017-10-12T19:05:34.287Z,13.90
2017-10-12T19:08:02.993Z,13.90
2017-10-12T19:10:35.204Z,13.90
2017-10-12T19:13:04.510Z,13.90
2017-10-12T19:15:37.271Z,13.90
2017-10-12T19:18:04.987Z,13.80
2017-10-12T19:20:33.456Z,13.90
2017-10-12T19:23:06.402Z,13.80
2017-10-12T19:25:35.227Z,13.80
2017-10-12T19:33:05.086Z,13.60
2017-10-12T19:35:35.007Z,13.60
2017-10-12T19:38:04.993Z,13.60
2017-10-12T19:40:34.625Z,13.50
2017-10-12T19:43:03.686Z,13.50
2017-10-12T19:45:36.710Z,13.50
2017-10-12T19:48:06.671Z,13.40
2017-10-12T19:50:35.436Z,13.40
2017-10-12T19:53:03.571Z,13.40
2017-10-12T19:55:33.055Z,13.30
2017-10-12T19:58:04.134Z,13.30
2017-10-12T20:00:31.975Z,13.30
2017-10-12T20:03:03.559Z,13.20
2017-10-12T20:05:50.975Z,13.30
2017-10-12T20:08:25.408Z,13.30
2017-10-12T20:10:55.604Z,13.10
2017-10-12T20:13:27.939Z,13.10
2017-10-12T20:15:56.236Z,13.10
2017-10-12T20:18:28.587Z,13.10
2017-10-12T20:20:58.663Z,13.00
2017-10-12T20:23:27.910Z,13.00
2017-10-12T20:25:59.966Z,13.00
2017-10-12T20:28:29.569Z,13.00
2017-10-12T20:31:01.676Z,13.00
2017-10-12T20:33:36.509Z,13.00
2017-10-12T20:36:06.286Z,12.90
2017-10-12T20:38:37.807Z,12.90
2017-10-12T20:41:07.353Z,12.90
2017-10-12T20:43:40.762Z,12.90
2017-10-12T20:49:01.445Z,12.80
2017-10-12T20:51:30.312Z,12.70
2017-10-12T20:54:00.628Z,12.60
2017-10-12T20:56:29.326Z,12.50
2017-10-12T20:58:59.297Z,12.50
2017-10-12T21:01:28.397Z,12.50
2017-10-12T21:04:00.309Z,12.50
2017-10-12T21:06:32.682Z,12.50
2017-10-12T21:09:02.670Z,12.40
2017-10-12T21:11:35.980Z,12.40
2017-10-12T21:14:04.191Z,12.30
2017-10-12T21:16:32.738Z,12.30
2017-10-12T21:19:02.283Z,12.40
2017-10-12T21:21:31.149Z,12.40
2017-10-12T21:24:00.972Z,12.40
2017-10-12T21:26:29.551Z,12.40
2017-10-12T21:28:59.648Z,12.30
2017-10-12T21:31:30.216Z,12.30
2017-10-12T21:34:10.974Z,12.20
2017-10-12T21:36:39.479Z,12.20
2017-10-12T21:39:08.711Z,12.10
2017-10-12T21:41:37.536Z,12.10
2017-10-12T21:44:05.853Z,12.10
2017-10-12T21:46:34.764Z,12.10
2017-10-12T21:49:04.731Z,12.00
2017-10-12T21:51:34.185Z,12.00
2017-10-12T21:54:02.768Z,12.00
2017-10-12T21:56:33.821Z,11.90
2017-10-12T21:59:02.224Z,12.00
2017-10-12T22:01:29.854Z,11.90
2017-10-12T22:04:04.043Z,11.90
2017-10-12T22:06:33.552Z,11.80
2017-10-12T22:09:14.571Z,11.80
2017-10-12T22:11:42.154Z,11.90
2017-10-12T22:14:10.599Z,11.90
2017-10-12T22:16:38.934Z,11.80
2017-10-12T22:19:11.908Z,11.90
2017-10-12T22:21:39.491Z,11.90
2017-10-12T22:24:07.962Z,11.90
2017-10-12T22:26:35.552Z,11.90
2017-10-12T22:29:09.976Z,11.80
2017-10-12T22:31:39.039Z,11.80
2017-10-12T22:34:06.622Z,11.80
2017-10-12T22:36:40.540Z,11.80
2017-10-12T22:39:11.846Z,11.80
2017-10-12T22:41:46.009Z,11.80
2017-10-12T22:44:33.262Z,11.80
2017-10-12T22:47:05.909Z,11.90
2017-10-12T22:49:36.385Z,11.90
2017-10-12T22:52:05.821Z,11.80
2017-10-12T22:54:36.641Z,11.80
2017-10-12T23:00:05.365Z,11.80
2017-10-12T23:02:37.554Z,11.80
2017-10-12T23:05:08.230Z,11.70
2017-10-12T23:07:41.900Z,11.70
2017-10-12T23:10:12.865Z,11.60
2017-10-12T23:13:03.452Z,11.70
2017-10-12T23:24:34.957Z,11.80
2017-10-12T23:27:03.671Z,11.60
2017-10-12T23:29:37.868Z,11.60
2017-10-12T23:32:09.471Z,11.60
2017-10-12T23:34:40.276Z,11.50
2017-10-12T23:37:31.797Z,11.50
2017-10-12T23:43:08.576Z,11.60
2017-10-12T23:45:38.256Z,11.60
2017-10-12T23:48:15.612Z,11.60
2017-10-12T23:51:04.174Z,11.60
2017-10-12T23:56:40.095Z,11.50
